UAL3931 KIAH-KPHX
Flight info
| Callsign | UAL3931 |
|---|---|
| Flight time | N/A |
| Altitude | 34000 |
| Route | PITZZ5 CRGER ELP DRRVR PINNG1 |
| Aircraft | A321/M-SDE3FGHIRWY/LB1 |
Departure
| Time | 2026-04-30 22:50 |
|---|---|
| Airport | George Bush Intercontinental Airport (KIAH) |
Arrival
| Time | N/A |
|---|---|
| Airport | Phoenix Sky Harbor International Airport (KPHX) |
| Time | Latitude | Longitude | Altitude | Speed | Heading |
|---|---|---|---|---|---|
| 2026-04-30 22:17 | 29.98534 | -95.33650 | 107 ft | 0 kts | 0° |
| 2026-04-30 22:36 | 29.98446 | -95.33665 | 105 ft | 4 kts | 85° |
| 2026-04-30 22:36 | 29.98436 | -95.33665 | 106 ft | 2 kts | 178° |
| 2026-04-30 22:37 | 29.98408 | -95.33664 | 107 ft | 0 kts | 179° |
| 2026-04-30 22:41 | 29.98402 | -95.33664 | 107 ft | 2 kts | 179° |
| 2026-04-30 22:41 | 29.98354 | -95.33666 | 107 ft | 6 kts | 182° |
| 2026-04-30 22:42 | 29.98318 | -95.33892 | 107 ft | 11 kts | 270° |
| 2026-04-30 22:43 | 29.98357 | -95.34061 | 107 ft | 12 kts | 308° |
| 2026-04-30 22:43 | 29.98377 | -95.34251 | 107 ft | 13 kts | 269° |
| 2026-04-30 22:44 | 29.98348 | -95.34464 | 107 ft | 15 kts | 240° |
| 2026-04-30 22:45 | 29.98323 | -95.34964 | 107 ft | 17 kts | 270° |
| 2026-04-30 22:45 | 29.98388 | -95.35201 | 107 ft | 17 kts | 330° |
| 2026-04-30 22:46 | 29.98601 | -95.35336 | 107 ft | 19 kts | 332° |
| 2026-04-30 22:47 | 29.99091 | -95.35484 | 107 ft | 18 kts | 0° |
| 2026-04-30 22:47 | 29.99234 | -95.35484 | 107 ft | 2 kts | 0° |
| 2026-04-30 22:48 | 29.99283 | -95.35484 | 107 ft | 5 kts | 0° |
| 2026-04-30 22:49 | 29.99342 | -95.35349 | 107 ft | 25 kts | 90° |
| 2026-04-30 22:49 | 29.99342 | -95.32570 | 354 ft | 169 kts | 88° |
| 2026-04-30 22:50 | 29.96142 | -95.29875 | 2154 ft | 223 kts | 211° |
| 2026-04-30 22:51 | 29.94561 | -95.33242 | 2544 ft | 269 kts | 259° |
| 2026-04-30 22:51 | 29.94069 | -95.37578 | 3861 ft | 274 kts | 261° |
| 2026-04-30 22:52 | 29.93974 | -95.39760 | 4528 ft | 277 kts | 275° |
| 2026-04-30 22:52 | 29.94803 | -95.44119 | 5946 ft | 279 kts | 281° |
| 2026-04-30 22:53 | 29.95684 | -95.48490 | 7335 ft | 280 kts | 280° |
| 2026-04-30 22:53 | 29.96564 | -95.52890 | 8606 ft | 284 kts | 280° |
| 2026-04-30 22:53 | 29.97008 | -95.55114 | 9233 ft | 286 kts | 280° |
| 2026-04-30 22:54 | 29.97902 | -95.59634 | 10332 ft | 295 kts | 280° |
| 2026-04-30 22:55 | 29.99399 | -95.67258 | 10706 ft | 350 kts | 280° |
| 2026-04-30 22:55 | 30.00310 | -95.71856 | 11584 ft | 356 kts | 279° |
| 2026-04-30 22:56 | 30.01411 | -95.77410 | 12839 ft | 356 kts | 279° |
| 2026-04-30 22:56 | 30.03056 | -95.85766 | 14657 ft | 356 kts | 280° |
| 2026-04-30 22:57 | 30.04144 | -95.91329 | 15849 ft | 355 kts | 280° |
| 2026-04-30 22:57 | 30.05231 | -95.96898 | 17018 ft | 356 kts | 281° |
| 2026-04-30 22:58 | 30.06318 | -96.02466 | 18187 ft | 356 kts | 281° |
| 2026-04-30 22:59 | 30.07848 | -96.10884 | 19474 ft | 362 kts | 279° |
| 2026-04-30 22:59 | 30.09131 | -96.19568 | 20675 ft | 369 kts | 278° |